Time;durP1;ratioP1;P1;durP2;ratioP2;P2;SDS_P1;SDS_P2;PMS_P1;PMS_P2;Temp;Humidity;BMP_temperature;BMP_pressure;BME280_temperature;BME280_humidity;BME280_pressure;Samples;Min_cycle;Max_cycle;Signal;HPM_P1;HPM_P2
2024/03/30 00:00:40;;;;;;;;;;;;;;;13.10;66.07;94162.13;10414375;28;2829;-67
2024/03/30 00:05:42;;;;;;;;;;;;;;;13.08;66.71;94154.38;10410819;28;2815;-68
2024/03/30 00:10:43;;;;;;;;;;;;;;;13.03;65.62;94164.56;10423764;28;2832;-68
2024/03/30 00:15:45;;;;;;;;;;;;;;;13.03;65.08;94168.06;10424947;28;2752;-69
2024/03/30 00:20:46;;;;;;;;;;;;;;;13.12;64.63;94154.53;10408391;28;2824;-68
2024/03/30 00:25:48;;;;;;;;;;;;;;;13.15;62.53;94164.66;10393770;28;2899;-68
2024/03/30 00:30:49;;;;;;;;;;;;;;;13.18;63.49;94155.91;10408001;28;2905;-68
2024/03/30 00:35:51;;;;;;;;;;;;;;;13.14;62.03;94149.59;10405589;28;2840;-68
2024/03/30 00:40:52;;;;;;;;;;;;;;;13.03;62.16;94157.25;10410319;28;2793;-69
2024/03/30 00:45:54;;;;;;;;;;;;;;;12.93;62.52;94158.44;10412216;28;2844;-69
2024/03/30 00:50:58;;;;;;;;;;;;;;;12.81;63.76;94166.47;10419879;28;2538;-69
2024/03/30 00:56:00;;;;;;;;;;;;;;;12.75;65.77;94156.97;10431088;28;2860;-68
2024/03/30 01:01:03;;;;;;;;;;;;;;;12.87;63.00;94148.97;10410219;28;2819;-68
2024/03/30 01:06:05;;;;;;;;;;;;;;;12.91;63.77;94149.88;10407852;28;2946;-67
2024/03/30 01:11:07;;;;;;;;;;;;;;;12.92;61.14;94146.09;10414250;28;2761;-69
2024/03/30 01:16:08;;;;;;;;;;;;;;;12.90;60.85;94150.22;10405375;28;2843;-68
2024/03/30 01:21:10;;;;;;;;;;;;;;;12.94;59.99;94146.53;10411499;28;2888;-69
2024/03/30 01:26:12;;;;;;;;;;;;;;;13.08;58.01;94157.06;10433224;28;2581;-70
2024/03/30 01:31:13;;;;;;;;;;;;;;;13.07;57.33;94157.41;10393772;28;2838;-69
2024/03/30 01:36:15;;;;;;;;;;;;;;;13.13;55.51;94164.19;10411547;28;2823;-70
2024/03/30 01:41:17;;;;;;;;;;;;;;;13.08;57.23;94164.38;10417182;28;2807;-70
2024/03/30 01:46:20;;;;;;;;;;;;;;;13.04;56.78;94163.44;10411256;28;2829;-69
2024/03/30 01:51:21;;;;;;;;;;;;;;;13.01;59.23;94169.50;10408395;28;2908;-68
2024/03/30 01:56:23;;;;;;;;;;;;;;;12.94;58.58;94160.03;10406152;28;2891;-70
2024/03/30 02:01:24;;;;;;;;;;;;;;;12.92;60.76;94162.28;10406868;28;2848;-70
2024/03/30 02:06:26;;;;;;;;;;;;;;;12.86;61.27;94168.97;10407848;28;2608;-71
2024/03/30 02:11:28;;;;;;;;;;;;;;;12.87;60.00;94158.97;10392026;28;2819;-70
2024/03/30 02:16:32;;;;;;;;;;;;;;;12.97;60.85;94166.66;10407994;28;2810;-70
2024/03/30 02:21:33;;;;;;;;;;;;;;;12.90;59.47;94164.47;10405735;28;2822;-69
2024/03/30 02:26:35;;;;;;;;;;;;;;;12.75;58.94;94162.38;10419280;28;2594;-70
2024/03/30 02:31:36;;;;;;;;;;;;;;;12.66;60.88;94157.03;10412995;28;2813;-69
2024/03/30 02:36:38;;;;;;;;;;;;;;;12.83;59.14;94150.72;10410516;28;2676;-69
2024/03/30 02:41:40;;;;;;;;;;;;;;;12.89;59.03;94159.44;10412328;28;2542;-69
2024/03/30 02:46:43;;;;;;;;;;;;;;;12.92;57.46;94150.69;10412076;28;2784;-70
2024/03/30 02:51:45;;;;;;;;;;;;;;;12.90;57.72;94151.00;10419829;28;2882;-71
2024/03/30 02:56:47;;;;;;;;;;;;;;;12.89;57.57;94144.03;10409419;28;2837;-70
2024/03/30 03:01:48;;;;;;;;;;;;;;;12.94;57.84;94145.75;10422857;28;2922;-75
2024/03/30 03:06:50;;;;;;;;;;;;;;;12.91;57.73;94151.78;10416897;28;2736;-69
2024/03/30 03:11:52;;;;;;;;;;;;;;;12.96;57.34;94157.00;10419754;28;2690;-69
2024/03/30 03:16:54;;;;;;;;;;;;;;;12.88;59.41;94142.47;10387640;28;2884;-70
2024/03/30 03:21:56;;;;;;;;;;;;;;;12.82;60.51;94146.47;10422713;28;2786;-69
2024/03/30 03:26:58;;;;;;;;;;;;;;;12.78;60.54;94144.72;10417591;28;2811;-73
2024/03/30 03:31:59;;;;;;;;;;;;;;;12.78;60.51;94134.75;10421800;28;2896;-75
2024/03/30 03:37:01;;;;;;;;;;;;;;;12.88;61.51;94134.38;10424156;28;2837;-70
2024/03/30 03:42:03;;;;;;;;;;;;;;;12.84;62.87;94128.03;10419558;28;2777;-71
2024/03/30 03:47:04;;;;;;;;;;;;;;;12.75;63.79;94123.84;10417608;28;2978;-70
2024/03/30 03:52:06;;;;;;;;;;;;;;;12.73;64.57;94134.94;10408525;28;2880;-73
2024/03/30 03:57:07;;;;;;;;;;;;;;;12.73;64.50;94137.66;10398362;28;2606;-71
2024/03/30 04:02:08;;;;;;;;;;;;;;;12.54;66.54;94153.44;10415773;28;2729;-68
2024/03/30 04:07:10;;;;;;;;;;;;;;;12.47;68.86;94145.06;10416730;28;3010;-69
2024/03/30 04:12:12;;;;;;;;;;;;;;;12.48;68.79;94128.59;10417940;28;2769;-68
2024/03/30 04:17:13;;;;;;;;;;;;;;;12.45;68.87;94137.31;10415262;28;3010;-70
2024/03/30 04:22:15;;;;;;;;;;;;;;;12.37;69.26;94135.44;10414630;28;2800;-69
2024/03/30 04:27:17;;;;;;;;;;;;;;;12.23;69.30;94146.44;10415287;28;2350;-70
2024/03/30 04:32:18;;;;;;;;;;;;;;;12.01;72.75;94141.28;10413500;28;2852;-69
2024/03/30 04:37:19;;;;;;;;;;;;;;;12.02;73.08;94140.19;10416505;28;2733;-69
2024/03/30 04:42:21;;;;;;;;;;;;;;;12.09;71.51;94140.50;10395348;28;2786;-71
2024/03/30 04:47:22;;;;;;;;;;;;;;;11.92;73.61;94146.72;10393449;28;2855;-72
2024/03/30 04:52:24;;;;;;;;;;;;;;;11.64;76.96;94144.38;10395694;28;2574;-69
2024/03/30 04:57:25;;;;;;;;;;;;;;;11.73;77.18;94148.94;10415447;28;2526;-70
2024/03/30 05:02:27;;;;;;;;;;;;;;;11.87;73.63;94144.19;10414699;28;2586;-68
2024/03/30 05:07:29;;;;;;;;;;;;;;;11.87;74.94;94139.59;10416490;28;2610;-72
2024/03/30 05:12:30;;;;;;;;;;;;;;;11.92;75.76;94129.78;10408238;28;2824;-69
2024/03/30 05:17:32;;;;;;;;;;;;;;;11.92;76.24;94125.16;10392621;28;2823;-72
2024/03/30 05:22:34;;;;;;;;;;;;;;;11.95;75.06;94129.91;10411471;28;2830;-69
2024/03/30 05:27:35;;;;;;;;;;;;;;;11.94;76.54;94133.72;10394229;28;2797;-70
2024/03/30 05:32:37;;;;;;;;;;;;;;;12.06;73.07;94119.56;10420321;28;2902;-69
2024/03/30 05:37:39;;;;;;;;;;;;;;;12.27;70.85;94114.25;10419624;28;2835;-68
2024/03/30 05:42:41;;;;;;;;;;;;;;;12.50;68.82;94101.31;10410513;28;2792;-68
2024/03/30 05:47:42;;;;;;;;;;;;;;;12.78;67.49;94099.69;10414070;28;3018;-69
2024/03/30 05:52:44;;;;;;;;;;;;;;;13.03;62.17;94087.13;10399832;28;2768;-69
2024/03/30 05:57:46;;;;;;;;;;;;;;;13.25;60.88;94077.94;10409620;28;2811;-69
2024/03/30 06:02:48;;;;;;;;;;;;;;;13.39;62.00;94059.56;10412043;28;2860;-68
2024/03/30 06:07:49;;;;;;;;;;;;;;;13.55;59.58;94053.50;10410235;28;2894;-69
2024/03/30 06:12:51;;;;;;;;;;;;;;;13.73;57.20;94049.50;10409203;28;2751;-74
2024/03/30 06:17:52;;;;;;;;;;;;;;;13.78;57.13;94041.19;10408989;28;2664;-70
2024/03/30 06:22:54;;;;;;;;;;;;;;;13.90;57.93;94038.50;10407033;28;2599;-70
2024/03/30 06:27:55;;;;;;;;;;;;;;;14.05;53.93;94040.53;10416542;28;2827;-69
2024/03/30 06:32:57;;;;;;;;;;;;;;;14.15;54.15;94050.13;10423645;28;2652;-69
2024/03/30 06:37:59;;;;;;;;;;;;;;;14.30;53.97;94049.44;10416570;28;2793;-69
2024/03/30 06:48:19;;;;;;;;;;;;;;;14.49;52.06;94032.66;10419096;28;2832;-69
2024/03/30 06:53:21;;;;;;;;;;;;;;;14.49;51.68;94026.47;10413542;28;2588;-71
2024/03/30 06:58:24;;;;;;;;;;;;;;;14.42;52.17;94018.13;10414508;28;2729;-68
2024/03/30 07:03:27;;;;;;;;;;;;;;;14.49;51.27;94018.34;10417544;28;2771;-69
2024/03/30 07:08:29;;;;;;;;;;;;;;;14.54;49.94;94021.63;10410490;28;2880;-69
2024/03/30 07:13:30;;;;;;;;;;;;;;;14.74;48.00;94013.69;10414714;28;2613;-69
2024/03/30 07:18:32;;;;;;;;;;;;;;;14.80;47.24;94006.91;10418472;28;2608;-71
2024/03/30 07:23:34;;;;;;;;;;;;;;;14.94;47.04;94009.22;10413309;28;2592;-69
2024/03/30 07:28:37;;;;;;;;;;;;;;;15.19;44.14;94018.03;10415643;28;2894;-69
2024/03/30 07:33:39;;;;;;;;;;;;;;;15.41;43.29;94034.53;10409762;28;2927;-70
2024/03/30 07:38:40;;;;;;;;;;;;;;;15.83;41.27;94027.88;10416054;28;2535;-69
2024/03/30 07:43:42;;;;;;;;;;;;;;;15.98;42.61;94018.97;10412736;28;2885;-68
2024/03/30 07:48:44;;;;;;;;;;;;;;;16.03;43.14;94018.72;10403589;28;2741;-69
2024/03/30 07:53:45;;;;;;;;;;;;;;;16.41;42.56;94026.22;10416457;28;2902;-70
2024/03/30 07:58:47;;;;;;;;;;;;;;;16.87;40.80;94031.91;10411363;28;2783;-67
2024/03/30 08:03:48;;;;;;;;;;;;;;;17.24;38.44;94023.31;10414156;28;2811;-69
2024/03/30 08:08:50;;;;;;;;;;;;;;;17.52;39.17;94014.94;10413666;28;2867;-68
2024/03/30 08:13:51;;;;;;;;;;;;;;;17.69;37.88;94011.78;10413693;28;2854;-69
2024/03/30 08:18:55;;;;;;;;;;;;;;;18.01;37.44;94011.56;10408152;28;2867;-69
2024/03/30 08:23:57;;;;;;;;;;;;;;;18.32;36.18;94011.31;10407557;28;2749;-71
2024/03/30 08:28:59;;;;;;;;;;;;;;;18.29;37.24;94017.44;10425637;28;2863;-72
2024/03/30 08:34:01;;;;;;;;;;;;;;;18.12;37.92;94001.63;10391339;28;2845;-74
2024/03/30 08:39:02;;;;;;;;;;;;;;;18.49;36.58;94003.75;10408120;28;2832;-77
2024/03/30 08:44:05;;;;;;;;;;;;;;;19.14;35.22;93989.88;10407542;28;2850;-70
2024/03/30 08:49:07;;;;;;;;;;;;;;;19.58;34.32;93978.31;10399575;28;3011;-72
2024/03/30 08:54:09;;;;;;;;;;;;;;;19.92;33.04;93996.19;10404433;28;2803;-69
2024/03/30 08:59:11;;;;;;;;;;;;;;;20.00;31.71;93985.34;10419184;28;2990;-70
2024/03/30 09:04:12;;;;;;;;;;;;;;;20.13;30.99;93967.53;10411260;28;2602;-69
2024/03/30 09:09:14;;;;;;;;;;;;;;;20.45;31.31;93974.03;10395090;28;2772;-69
2024/03/30 09:14:16;;;;;;;;;;;;;;;20.65;29.71;93976.47;10413208;28;2766;-71
2024/03/30 09:19:18;;;;;;;;;;;;;;;20.91;30.26;93970.78;10414801;28;2758;-74
2024/03/30 09:24:20;;;;;;;;;;;;;;;21.22;28.86;93963.09;10426365;28;2765;-69
2024/03/30 09:29:21;;;;;;;;;;;;;;;20.94;30.64;93961.06;10418687;28;2756;-69
2024/03/30 09:34:23;;;;;;;;;;;;;;;20.93;30.40;93951.25;10391888;28;2844;-69
2024/03/30 09:39:26;;;;;;;;;;;;;;;20.60;31.20;93949.53;10407809;28;2650;-71
2024/03/30 09:44:31;;;;;;;;;;;;;;;20.87;30.36;93948.16;10408347;28;3016;-71
2024/03/30 09:49:32;;;;;;;;;;;;;;;21.14;30.77;93926.00;10416022;28;2911;-69
2024/03/30 09:54:35;;;;;;;;;;;;;;;21.25;31.36;93921.38;10406417;28;2812;-69
2024/03/30 09:59:40;;;;;;;;;;;;;;;21.60;29.78;93920.66;10428464;28;2800;-70
2024/03/30 10:04:42;;;;;;;;;;;;;;;21.45;29.69;93911.69;10407244;28;2904;-70
2024/03/30 10:09:47;;;;;;;;;;;;;;;21.69;29.58;93912.84;10421965;28;2876;-70
2024/03/30 10:14:48;;;;;;;;;;;;;;;21.46;28.05;93902.31;10408163;28;2891;-69
2024/03/30 10:19:50;;;;;;;;;;;;;;;21.76;26.48;93895.69;10423304;28;2648;-69
2024/03/30 10:24:53;;;;;;;;;;;;;;;21.49;26.62;93887.84;10409248;28;2905;-68
2024/03/30 10:29:54;;;;;;;;;;;;;;;21.73;26.36;93874.59;10402322;28;2832;-69
2024/03/30 10:34:56;;;;;;;;;;;;;;;21.86;25.63;93878.50;10400033;28;2555;-69
2024/03/30 10:39:58;;;;;;;;;;;;;;;22.29;25.87;93881.22;10411663;28;2739;-69
2024/03/30 10:45:01;;;;;;;;;;;;;;;22.22;25.26;93873.81;10406572;28;2810;-70
2024/03/30 10:50:02;;;;;;;;;;;;;;;22.21;25.84;93866.78;10406136;28;2698;-71
2024/03/30 10:55:04;;;;;;;;;;;;;;;22.48;25.43;93853.41;10408864;28;2736;-69
2024/03/30 11:00:10;;;;;;;;;;;;;;;22.67;24.78;93858.44;10394978;28;2944;-69
2024/03/30 11:05:12;;;;;;;;;;;;;;;22.55;24.96;93858.88;10392781;28;2867;-69
2024/03/30 11:10:14;;;;;;;;;;;;;;;22.46;25.35;93858.50;10428947;28;2827;-69
2024/03/30 11:15:17;;;;;;;;;;;;;;;22.63;24.50;93854.13;10413684;28;2840;-70
2024/03/30 11:20:19;;;;;;;;;;;;;;;22.58;24.75;93858.06;10420506;28;2786;-71
2024/03/30 11:25:25;;;;;;;;;;;;;;;22.87;24.10;93858.00;10426240;28;2947;-69
2024/03/30 11:30:27;;;;;;;;;;;;;;;22.86;25.36;93853.66;10414873;28;2772;-70
2024/03/30 11:35:28;;;;;;;;;;;;;;;23.06;24.81;93845.78;10416668;28;2642;-71
2024/03/30 11:40:30;;;;;;;;;;;;;;;23.00;24.11;93839.91;10419642;28;2774;-69
2024/03/30 11:45:31;;;;;;;;;;;;;;;22.82;24.00;93839.97;10401203;28;2693;-69
2024/03/30 11:50:33;;;;;;;;;;;;;;;23.04;23.00;93848.91;10397474;28;2827;-68
2024/03/30 11:55:35;;;;;;;;;;;;;;;22.86;23.40;93840.78;10412720;28;2883;-71
2024/03/30 12:00:37;;;;;;;;;;;;;;;22.69;25.18;93846.28;10414014;28;2795;-69
2024/03/30 12:05:42;;;;;;;;;;;;;;;22.80;23.37;93839.59;10410919;28;2869;-69
2024/03/30 12:10:45;;;;;;;;;;;;;;;22.90;23.32;93843.47;10413125;28;2804;-69
2024/03/30 12:15:47;;;;;;;;;;;;;;;23.18;23.75;93823.38;10412176;28;2834;-69
2024/03/30 12:20:48;;;;;;;;;;;;;;;23.23;24.04;93824.94;10390970;28;2808;-68
2024/03/30 12:25:57;;;;;;;;;;;;;;;23.35;23.17;93824.44;10408919;28;2826;-71
2024/03/30 12:30:58;;;;;;;;;;;;;;;23.34;23.20;93804.47;10419363;28;2916;-74
2024/03/30 12:36:00;;;;;;;;;;;;;;;23.40;23.57;93805.59;10409370;28;2854;-70
2024/03/30 12:41:01;;;;;;;;;;;;;;;23.64;22.99;93805.84;10397024;28;2869;-69
2024/03/30 12:46:03;;;;;;;;;;;;;;;23.39;22.31;93806.00;10409397;28;2776;-69
2024/03/30 12:51:05;;;;;;;;;;;;;;;23.46;21.99;93797.72;10414130;28;2982;-68
2024/03/30 12:56:08;;;;;;;;;;;;;;;23.70;22.68;93802.25;10412948;28;2858;-70
2024/03/30 13:01:09;;;;;;;;;;;;;;;23.44;21.98;93791.88;10408756;28;2758;-69
2024/03/30 13:06:11;;;;;;;;;;;;;;;23.17;22.61;93792.47;10407950;28;2817;-69
2024/03/30 13:11:14;;;;;;;;;;;;;;;22.95;22.48;93788.28;10423060;28;2582;-69
2024/03/30 13:16:15;;;;;;;;;;;;;;;22.97;22.56;93788.69;10408433;28;2535;-69
2024/03/30 13:21:21;;;;;;;;;;;;;;;23.02;22.28;93782.75;10413531;28;2853;-67
2024/03/30 13:26:23;;;;;;;;;;;;;;;23.15;22.32;93800.28;10408640;28;3004;-70
2024/03/30 13:31:25;;;;;;;;;;;;;;;23.03;22.49;93784.34;10406196;28;2805;-68
2024/03/30 13:36:27;;;;;;;;;;;;;;;23.20;22.83;93794.38;10400020;28;2762;-69
2024/03/30 13:41:30;;;;;;;;;;;;;;;23.19;22.71;93779.13;10406686;28;2771;-70
2024/03/30 13:46:35;;;;;;;;;;;;;;;23.60;22.99;93794.88;10410299;28;2840;-70
2024/03/30 13:51:37;;;;;;;;;;;;;;;23.71;22.66;93783.84;10410379;28;2743;-69
2024/03/30 13:56:39;;;;;;;;;;;;;;;23.42;22.79;93788.75;10406618;28;2808;-69
2024/03/30 14:01:41;;;;;;;;;;;;;;;23.71;23.27;93792.84;10406057;28;2880;-69
2024/03/30 14:06:43;;;;;;;;;;;;;;;23.93;22.91;93778.94;10436541;23;2761;-70
2024/03/30 14:11:47;;;;;;;;;;;;;;;23.67;23.41;93783.88;10450491;28;2901;-68
2024/03/30 14:16:48;;;;;;;;;;;;;;;23.32;24.16;93784.13;10453210;28;2800;-70
2024/03/30 14:21:50;;;;;;;;;;;;;;;22.86;24.62;93782.44;10449853;28;2793;-69
2024/03/30 14:26:53;;;;;;;;;;;;;;;22.80;25.33;93786.78;10450788;28;2756;-71
2024/03/30 14:31:55;;;;;;;;;;;;;;;22.91;25.10;93788.31;10449105;28;2870;-72
2024/03/30 14:36:57;;;;;;;;;;;;;;;22.87;24.48;93784.03;10453279;28;2985;-69
2024/03/30 14:41:59;;;;;;;;;;;;;;;22.67;25.17;93783.72;10430572;28;2727;-69
2024/03/30 14:47:04;;;;;;;;;;;;;;;22.72;24.78;93796.22;10458756;28;2855;-74
2024/03/30 14:52:06;;;;;;;;;;;;;;;22.96;24.51;93797.28;10460363;28;2752;-69
2024/03/30 14:57:11;;;;;;;;;;;;;;;22.78;24.49;93783.66;10463122;28;2598;-69
2024/03/30 15:02:13;;;;;;;;;;;;;;;22.69;24.21;93788.78;10452093;28;2872;-76
2024/03/30 15:07:16;;;;;;;;;;;;;;;22.42;25.41;93785.78;10462507;28;2865;-73
2024/03/30 15:12:18;;;;;;;;;;;;;;;22.10;25.00;93792.91;10458287;28;2948;-68
2024/03/30 15:17:20;;;;;;;;;;;;;;;22.07;25.36;93790.13;10459935;28;2885;-69
2024/03/30 15:22:22;;;;;;;;;;;;;;;21.85;25.28;93789.41;10478584;28;2877;-69
2024/03/30 15:27:25;;;;;;;;;;;;;;;21.75;25.65;93790.19;10459791;28;2794;-71
2024/03/30 15:32:30;;;;;;;;;;;;;;;21.54;26.15;93783.59;10458450;28;2893;-70
2024/03/30 15:37:32;;;;;;;;;;;;;;;21.15;27.00;93790.97;10459245;28;2818;-68
2024/03/30 15:42:37;;;;;;;;;;;;;;;20.87;26.82;93797.16;10453583;28;2895;-71
2024/03/30 15:47:40;;;;;;;;;;;;;;;20.54;27.85;93792.75;10457640;28;2940;-69
2024/03/30 15:52:41;;;;;;;;;;;;;;;20.37;28.65;93803.22;10471394;28;2822;-68
2024/03/30 15:57:43;;;;;;;;;;;;;;;20.27;28.59;93798.47;10452227;28;2769;-70
2024/03/30 16:02:44;;;;;;;;;;;;;;;20.24;28.01;93805.50;10441478;28;2895;-70
2024/03/30 16:07:46;;;;;;;;;;;;;;;20.17;28.21;93808.19;10454979;28;2885;-69
2024/03/30 16:12:48;;;;;;;;;;;;;;;20.03;28.74;93810.81;10462588;28;2797;-68
2024/03/30 16:17:50;;;;;;;;;;;;;;;19.90;29.53;93815.81;10468991;28;2612;-69
2024/03/30 16:22:55;;;;;;;;;;;;;;;19.80;29.67;93823.94;10458011;28;2853;-68
2024/03/30 16:27:57;;;;;;;;;;;;;;;19.68;29.25;93838.63;10456106;28;2695;-69
2024/03/30 16:32:58;;;;;;;;;;;;;;;19.46;29.98;93832.19;10441500;28;2866;-70
2024/03/30 16:38:00;;;;;;;;;;;;;;;19.28;29.68;93826.63;10458407;28;2694;-71
2024/03/30 16:43:03;;;;;;;;;;;;;;;19.18;29.40;93838.19;10452288;28;2722;-68
2024/03/30 16:48:05;;;;;;;;;;;;;;;19.01;30.36;93852.41;10457263;28;2818;-69
2024/03/30 16:53:08;;;;;;;;;;;;;;;18.86;30.31;93835.91;10458871;28;2845;-71
2024/03/30 16:58:11;;;;;;;;;;;;;;;18.79;29.97;93849.47;10471704;28;2992;-70
2024/03/30 17:03:13;;;;;;;;;;;;;;;18.55;30.73;93850.69;10457840;28;2807;-70
2024/03/30 17:08:16;;;;;;;;;;;;;;;18.41;30.64;93855.19;10462639;28;2837;-72
2024/03/30 17:13:19;;;;;;;;;;;;;;;18.23;30.93;93855.75;10452032;28;2867;-68
2024/03/30 17:18:21;;;;;;;;;;;;;;;18.05;31.59;93866.38;10453813;28;2746;-69
2024/03/30 17:23:23;;;;;;;;;;;;;;;17.82;31.85;93879.25;10455625;28;2913;-68
2024/03/30 17:28:25;;;;;;;;;;;;;;;17.72;32.49;93872.47;10453556;28;2655;-70
2024/03/30 17:33:28;;;;;;;;;;;;;;;17.56;32.21;93890.84;10459051;28;2850;-71
2024/03/30 17:38:29;;;;;;;;;;;;;;;17.39;33.07;93888.59;10457888;28;2851;-71
2024/03/30 17:43:34;;;;;;;;;;;;;;;17.22;34.28;93884.41;10451006;28;2738;-70
2024/03/30 17:48:36;;;;;;;;;;;;;;;17.01;34.74;93888.31;10453579;28;2963;-69
2024/03/30 17:53:38;;;;;;;;;;;;;;;16.91;36.11;93890.84;10468604;28;2884;-73
2024/03/30 17:58:44;;;;;;;;;;;;;;;16.92;36.15;93897.81;10469089;28;2529;-74
2024/03/30 18:03:46;;;;;;;;;;;;;;;16.81;37.38;93896.84;10450557;28;2931;-70
2024/03/30 18:08:48;;;;;;;;;;;;;;;16.71;37.28;93904.41;10459123;28;2529;-70
2024/03/30 18:13:50;;;;;;;;;;;;;;;16.62;38.71;93917.38;10452735;28;2775;-70
2024/03/30 18:18:55;;;;;;;;;;;;;;;16.53;39.63;93924.94;10480195;28;2885;-70
2024/03/30 18:23:57;;;;;;;;;;;;;;;16.51;39.54;93929.16;10466327;28;2784;-70
2024/03/30 18:28:59;;;;;;;;;;;;;;;16.45;40.91;93917.78;10463709;28;2814;-70
2024/03/30 18:34:00;;;;;;;;;;;;;;;16.40;40.92;93926.22;10469173;28;2745;-69
2024/03/30 18:39:03;;;;;;;;;;;;;;;16.43;40.36;93936.34;10460877;28;2881;-68
2024/03/30 18:44:05;;;;;;;;;;;;;;;16.35;40.90;93940.84;10457773;28;2756;-69
2024/03/30 18:49:08;;;;;;;;;;;;;;;16.21;42.12;93929.66;10464952;28;2752;-69
2024/03/30 18:54:10;;;;;;;;;;;;;;;16.21;41.67;93932.38;10461306;28;2863;-74
2024/03/30 18:59:13;;;;;;;;;;;;;;;16.13;41.79;93922.53;10456557;28;2829;-69
2024/03/30 19:04:15;;;;;;;;;;;;;;;16.12;41.66;93916.31;10464276;28;2922;-71
2024/03/30 19:09:20;;;;;;;;;;;;;;;16.06;42.60;93934.00;10440614;28;2894;-70
2024/03/30 19:14:22;;;;;;;;;;;;;;;15.96;42.60;93923.69;10459300;28;2780;-73
2024/03/30 19:19:26;;;;;;;;;;;;;;;15.82;43.10;93931.50;10464560;28;2779;-71
2024/03/30 19:24:28;;;;;;;;;;;;;;;15.80;43.77;93931.06;10458985;28;2878;-71
2024/03/30 19:29:30;;;;;;;;;;;;;;;15.67;43.99;93933.88;10455934;28;2807;-71
2024/03/30 19:34:32;;;;;;;;;;;;;;;15.61;45.35;93932.53;10457635;28;2884;-72
2024/03/30 19:39:36;;;;;;;;;;;;;;;15.49;45.20;93938.03;10461484;28;2856;-72
2024/03/30 19:44:38;;;;;;;;;;;;;;;15.47;46.13;93944.94;10458377;28;2837;-70
2024/03/30 19:49:40;;;;;;;;;;;;;;;15.38;47.14;93940.44;10457681;28;2807;-71
2024/03/30 19:54:42;;;;;;;;;;;;;;;15.43;45.95;93928.59;10456787;28;2822;-71
2024/03/30 19:59:44;;;;;;;;;;;;;;;15.35;46.88;93922.22;10473281;28;2865;-71
2024/03/30 20:04:46;;;;;;;;;;;;;;;15.33;47.25;93910.13;10453139;28;2817;-70
2024/03/30 20:09:50;;;;;;;;;;;;;;;15.36;46.16;93912.94;10465924;28;2365;-70
2024/03/30 20:14:51;;;;;;;;;;;;;;;15.37;47.46;93906.41;10434851;28;2859;-70
2024/03/30 20:19:54;;;;;;;;;;;;;;;15.50;46.05;93915.22;10456780;28;2759;-70
2024/03/30 20:24:58;;;;;;;;;;;;;;;15.40;46.18;93913.84;10456598;28;2825;-69
2024/03/30 20:30:00;;;;;;;;;;;;;;;15.33;47.47;93920.97;10456867;28;2734;-69
2024/03/30 20:35:05;;;;;;;;;;;;;;;15.33;47.13;93915.56;10462595;28;2592;-71
2024/03/30 20:40:09;;;;;;;;;;;;;;;15.19;48.88;93907.88;10453687;28;2799;-70
2024/03/30 20:45:10;;;;;;;;;;;;;;;15.07;49.23;93895.19;10457421;28;2819;-69
2024/03/30 20:50:13;;;;;;;;;;;;;;;15.12;49.30;93904.97;10454255;28;2773;-69
2024/03/30 20:55:14;;;;;;;;;;;;;;;15.14;49.29;93891.88;10453363;28;2581;-70
2024/03/30 21:00:16;;;;;;;;;;;;;;;15.01;49.66;93883.03;10446337;28;2873;-70
2024/03/30 21:05:20;;;;;;;;;;;;;;;15.10;49.30;93875.56;10456321;28;2806;-70
2024/03/30 21:10:23;;;;;;;;;;;;;;;15.00;50.23;93873.34;10470183;28;2749;-71
2024/03/30 21:15:24;;;;;;;;;;;;;;;14.93;50.00;93873.19;10452657;28;2803;-70
2024/03/30 21:20:26;;;;;;;;;;;;;;;14.85;49.88;93863.31;10457524;28;2616;-70
2024/03/30 21:25:28;;;;;;;;;;;;;;;14.71;51.21;93850.19;10458791;28;2792;-71
2024/03/30 21:30:30;;;;;;;;;;;;;;;14.70;50.71;93847.84;10476002;28;2749;-69
2024/03/30 21:35:33;;;;;;;;;;;;;;;14.60;50.93;93866.13;10472920;28;2829;-70
2024/03/30 21:40:38;;;;;;;;;;;;;;;14.37;53.83;93843.44;10459181;28;2741;-71
2024/03/30 21:45:39;;;;;;;;;;;;;;;14.32;53.54;93832.91;10456006;28;2851;-70
2024/03/30 21:50:41;;;;;;;;;;;;;;;14.28;53.34;93835.50;10455745;28;2869;-70
2024/03/30 21:55:45;;;;;;;;;;;;;;;14.21;54.14;93829.88;10451123;28;2806;-72
2024/03/30 22:00:47;;;;;;;;;;;;;;;14.12;55.71;93828.44;10439923;28;2809;-74
2024/03/30 22:05:52;;;;;;;;;;;;;;;14.12;55.43;93840.03;10449565;28;2797;-71
2024/03/30 22:10:54;;;;;;;;;;;;;;;13.94;57.21;93839.53;10455569;28;2786;-70
2024/03/30 22:15:55;;;;;;;;;;;;;;;14.02;57.89;93835.91;10457626;28;2774;-68
2024/03/30 22:21:00;;;;;;;;;;;;;;;13.98;59.23;93845.03;10470461;28;2884;-68
2024/03/30 22:26:02;;;;;;;;;;;;;;;13.74;63.69;93829.66;10455034;28;2828;-74
2024/03/30 22:31:04;;;;;;;;;;;;;;;13.56;64.95;93825.66;10455574;28;2819;-72
2024/03/30 22:36:05;;;;;;;;;;;;;;;13.63;65.34;93818.56;10452858;28;2753;-74
2024/03/30 22:41:07;;;;;;;;;;;;;;;13.49;69.20;93821.63;10450750;28;2731;-68
2024/03/30 22:46:09;;;;;;;;;;;;;;;13.51;69.33;93819.34;10453574;28;2828;-70
2024/03/30 22:51:11;;;;;;;;;;;;;;;13.55;67.12;93837.56;10454395;28;2653;-69
2024/03/30 22:56:13;;;;;;;;;;;;;;;13.71;87.42;93838.44;10456244;28;2759;-68
2024/03/30 23:01:15;;;;;;;;;;;;;;;13.07;100.00;93834.50;10455819;28;2775;-68
2024/03/30 23:06:17;;;;;;;;;;;;;;;12.54;100.00;93821.94;10453890;28;2925;-69
2024/03/30 23:11:18;;;;;;;;;;;;;;;12.24;100.00;93805.91;10438929;28;2860;-71
2024/03/30 23:16:20;;;;;;;;;;;;;;;12.12;100.00;93803.94;10455635;28;2823;-73
2024/03/30 23:21:22;;;;;;;;;;;;;;;11.97;100.00;93814.56;10459483;28;2782;-75
2024/03/30 23:26:24;;;;;;;;;;;;;;;11.93;100.00;93808.25;10487315;28;2808;-73
2024/03/30 23:31:27;;;;;;;;;;;;;;;12.15;100.00;93800.63;10452801;28;2795;-68
2024/03/30 23:36:36;;;;;;;;;;;;;;;12.10;100.00;93810.81;10470330;28;2842;-69
2024/03/30 23:41:39;;;;;;;;;;;;;;;12.02;100.00;93817.81;10472838;28;2770;-72
2024/03/30 23:46:41;;;;;;;;;;;;;;;11.80;100.00;93812.75;10459803;28;2493;-72
2024/03/30 23:51:42;;;;;;;;;;;;;;;11.57;100.00;93823.03;10456320;28;2883;-73
2024/03/30 23:56:44;;;;;;;;;;;;;;;11.35;100.00;93824.91;10464876;28;2635;-70
